createdAt,value
2023-05-15T00:02:23.757Z,17.00
2023-05-15T00:04:52.419Z,16.97
2023-05-15T00:07:20.774Z,16.94
2023-05-15T00:09:50.214Z,16.89
2023-05-15T00:12:19.946Z,16.90
2023-05-15T00:14:48.029Z,16.90
2023-05-15T00:17:16.030Z,16.88
2023-05-15T00:19:44.429Z,16.87
2023-05-15T00:22:12.491Z,16.85
2023-05-15T00:24:40.570Z,16.81
2023-05-15T00:27:10.616Z,16.80
2023-05-15T00:29:38.790Z,16.79
2023-05-15T00:32:08.346Z,16.79
2023-05-15T00:34:36.881Z,16.77
2023-05-15T00:37:05.394Z,16.73
2023-05-15T00:39:33.467Z,16.70
2023-05-15T00:42:02.345Z,16.69
2023-05-15T00:44:33.407Z,16.61
2023-05-15T00:47:03.375Z,16.57
2023-05-15T00:49:35.493Z,16.57
2023-05-15T00:52:08.364Z,16.55
2023-05-15T00:54:36.505Z,16.54
2023-05-15T00:57:07.157Z,16.52
2023-05-15T00:59:41.066Z,16.49
2023-05-15T01:02:10.493Z,16.43
2023-05-15T01:04:40.529Z,16.40
2023-05-15T01:07:09.423Z,16.39
2023-05-15T01:09:39.451Z,16.36
2023-05-15T01:12:09.058Z,16.36
2023-05-15T01:14:38.871Z,16.37
2023-05-15T01:17:07.668Z,16.40
2023-05-15T01:19:36.638Z,16.42
2023-05-15T01:22:30.440Z,16.38
2023-05-15T01:25:21.712Z,16.36
2023-05-15T01:27:55.717Z,16.30
2023-05-15T01:30:30.159Z,16.27
2023-05-15T01:33:06.526Z,16.29
2023-05-15T01:35:39.715Z,16.30
2023-05-15T01:38:20.356Z,16.41
2023-05-15T01:40:49.997Z,16.39
2023-05-15T01:43:25.364Z,16.31
2023-05-15T01:45:54.510Z,16.25
2023-05-15T01:48:24.598Z,16.26
2023-05-15T01:50:55.333Z,16.30
2023-05-15T01:53:23.807Z,16.33
2023-05-15T01:55:54.740Z,16.38
2023-05-15T01:58:27.217Z,16.44
2023-05-15T02:00:57.890Z,16.47
2023-05-15T02:03:27.023Z,16.50
2023-05-15T02:05:56.644Z,16.52
2023-05-15T02:08:28.760Z,16.54
2023-05-15T02:10:58.721Z,16.57
2023-05-15T02:13:29.468Z,16.60
2023-05-15T02:15:58.165Z,16.61
2023-05-15T02:18:28.547Z,16.62
2023-05-15T02:21:00.992Z,16.69
2023-05-15T02:23:29.477Z,16.76
2023-05-15T02:26:09.772Z,16.79
2023-05-15T02:28:47.321Z,16.81
2023-05-15T02:31:24.676Z,16.82
2023-05-15T02:34:00.161Z,16.78
2023-05-15T02:36:33.503Z,16.74
2023-05-15T02:39:03.082Z,16.72
2023-05-15T02:41:33.778Z,16.63
2023-05-15T02:44:04.395Z,16.70
2023-05-15T02:46:33.230Z,16.76
2023-05-15T02:49:02.654Z,16.81
2023-05-15T02:51:31.222Z,16.83
2023-05-15T02:54:01.126Z,16.87
2023-05-15T02:56:29.524Z,16.90
2023-05-15T02:58:57.705Z,16.95
2023-05-15T03:01:27.149Z,16.98
2023-05-15T03:03:55.712Z,17.01
2023-05-15T03:06:23.816Z,17.02
2023-05-15T03:08:52.078Z,17.03
2023-05-15T03:11:21.464Z,17.02
2023-05-15T03:13:49.544Z,17.04
2023-05-15T03:16:17.563Z,17.06
2023-05-15T03:18:47.325Z,17.05
2023-05-15T03:21:15.555Z,17.05
2023-05-15T03:23:43.725Z,17.05
2023-05-15T03:26:12.052Z,17.03
2023-05-15T03:28:41.732Z,17.04
2023-05-15T03:31:10.573Z,17.05
2023-05-15T03:33:39.480Z,17.05
2023-05-15T03:36:09.322Z,17.08
2023-05-15T03:38:38.072Z,17.11
2023-05-15T03:41:06.562Z,17.11
2023-05-15T03:43:34.598Z,17.12
2023-05-15T03:46:04.649Z,17.15
2023-05-15T03:48:33.092Z,17.15
2023-05-15T03:51:01.353Z,17.17
2023-05-15T03:53:33.526Z,17.19
2023-05-15T03:56:01.880Z,17.20
2023-05-15T03:58:31.992Z,17.24
2023-05-15T04:01:00.127Z,17.25
2023-05-15T04:03:28.434Z,17.27
2023-05-15T04:05:56.448Z,17.28
2023-05-15T04:08:24.503Z,17.34
2023-05-15T04:10:54.626Z,17.39
2023-05-15T04:13:22.915Z,17.48
2023-05-15T04:15:51.025Z,17.56
2023-05-15T04:18:19.370Z,17.63
2023-05-15T04:20:47.372Z,17.71
2023-05-15T04:23:15.326Z,17.77
2023-05-15T04:25:46.577Z,17.84
2023-05-15T04:28:16.123Z,17.87
2023-05-15T04:30:44.376Z,17.89
2023-05-15T04:33:15.009Z,17.94
2023-05-15T04:35:43.241Z,17.98
2023-05-15T04:38:11.814Z,18.02
2023-05-15T04:40:39.885Z,18.05
2023-05-15T04:43:08.326Z,18.08
2023-05-15T04:45:39.085Z,18.12
2023-05-15T04:48:07.637Z,18.16
2023-05-15T04:50:36.882Z,18.12
2023-05-15T04:53:05.485Z,18.11
2023-05-15T04:55:33.805Z,18.21
2023-05-15T04:58:01.919Z,18.32
2023-05-15T05:00:31.106Z,18.38
2023-05-15T05:03:00.632Z,18.44
2023-05-15T05:05:28.947Z,18.56
2023-05-15T05:07:57.243Z,18.64
2023-05-15T05:10:25.282Z,18.79
2023-05-15T05:12:53.368Z,18.95
2023-05-15T05:15:21.729Z,19.10
2023-05-15T05:17:49.837Z,19.18
2023-05-15T05:20:21.535Z,19.32
2023-05-15T05:22:49.861Z,19.44
2023-05-15T05:25:18.423Z,19.53
2023-05-15T05:27:46.504Z,19.63
2023-05-15T05:30:15.184Z,19.67
2023-05-15T05:32:43.503Z,19.69
2023-05-15T05:35:11.609Z,19.72
2023-05-15T05:37:41.621Z,19.68
2023-05-15T05:40:10.826Z,19.80
2023-05-15T05:42:39.189Z,19.78
2023-05-15T05:45:08.611Z,19.79
2023-05-15T05:47:36.799Z,19.83
2023-05-15T05:50:05.851Z,19.85
2023-05-15T05:52:33.884Z,19.91
2023-05-15T05:55:03.596Z,20.01
2023-05-15T05:57:32.002Z,20.10
2023-05-15T06:00:00.128Z,20.14
2023-05-15T06:02:28.575Z,20.17
2023-05-15T06:04:57.502Z,19.98
2023-05-15T06:07:25.581Z,19.96
2023-05-15T06:09:53.559Z,19.99
2023-05-15T06:12:25.422Z,20.10
2023-05-15T06:14:53.424Z,20.25
2023-05-15T06:17:21.896Z,20.19
2023-05-15T06:19:49.942Z,20.36
2023-05-15T06:22:18.032Z,20.63
2023-05-15T06:24:46.476Z,20.72
2023-05-15T06:27:14.524Z,20.68
2023-05-15T06:29:43.977Z,20.88
2023-05-15T06:32:12.870Z,21.16
2023-05-15T06:34:40.855Z,21.38
2023-05-15T06:37:09.233Z,21.33
2023-05-15T06:39:37.645Z,21.48
2023-05-15T06:42:06.729Z,21.42
2023-05-15T06:44:36.544Z,21.65
2023-05-15T06:47:07.453Z,21.88
2023-05-15T06:49:35.589Z,21.73
2023-05-15T06:52:03.663Z,22.24
2023-05-15T06:54:31.888Z,22.31
2023-05-15T06:57:00.128Z,22.31
2023-05-15T06:59:28.474Z,22.24
2023-05-15T07:01:56.992Z,22.35
2023-05-15T07:04:26.386Z,22.54
2023-05-15T07:06:54.455Z,22.83
2023-05-15T07:09:22.745Z,23.05
2023-05-15T07:11:50.813Z,23.40
2023-05-15T07:14:19.932Z,23.31
2023-05-15T07:16:48.291Z,23.37
2023-05-15T07:19:18.891Z,23.21
2023-05-15T07:21:48.346Z,23.36
2023-05-15T07:24:16.694Z,23.57
2023-05-15T07:26:57.641Z,23.57
2023-05-15T07:29:27.077Z,23.83
2023-05-15T07:31:55.293Z,23.94
2023-05-15T07:34:23.594Z,23.93
2023-05-15T07:36:53.306Z,24.20
2023-05-15T07:39:21.335Z,24.17
2023-05-15T07:41:49.344Z,24.42
2023-05-15T07:44:17.623Z,24.67
2023-05-15T07:46:46.145Z,24.86
2023-05-15T07:49:14.268Z,24.98
2023-05-15T07:51:42.826Z,25.04
2023-05-15T07:54:12.488Z,24.99
2023-05-15T07:56:41.512Z,25.05
2023-05-15T07:59:09.891Z,25.04
2023-05-15T08:01:37.932Z,25.15
2023-05-15T08:04:08.970Z,25.20
2023-05-15T08:06:38.142Z,25.37
2023-05-15T08:09:06.544Z,25.30
2023-05-15T08:11:36.472Z,25.56
2023-05-15T08:14:04.481Z,25.54
2023-05-15T08:16:32.816Z,25.75
2023-05-15T08:19:04.686Z,25.75
2023-05-15T08:21:33.284Z,25.86
2023-05-15T08:24:01.864Z,26.01
2023-05-15T08:26:30.099Z,26.38
2023-05-15T08:28:59.691Z,26.26
2023-05-15T08:31:28.025Z,26.29
2023-05-15T08:33:57.161Z,26.18
2023-05-15T08:36:25.648Z,26.22
2023-05-15T08:38:53.741Z,26.23
2023-05-15T08:41:40.646Z,26.45
2023-05-15T08:44:11.865Z,26.53
2023-05-15T08:46:40.114Z,26.60
2023-05-15T08:49:14.163Z,26.82
2023-05-15T08:51:42.688Z,26.79
2023-05-15T08:54:11.647Z,26.63
2023-05-15T08:56:40.103Z,26.96
2023-05-15T08:59:08.648Z,27.02
2023-05-15T09:01:40.929Z,27.04
2023-05-15T09:04:09.536Z,27.09
2023-05-15T09:06:39.309Z,27.21
2023-05-15T09:09:07.864Z,27.30
2023-05-15T09:11:36.950Z,27.33
2023-05-15T09:14:04.986Z,27.20
2023-05-15T09:16:33.073Z,27.52
2023-05-15T09:19:04.121Z,27.37
2023-05-15T09:21:32.483Z,27.61
2023-05-15T09:24:17.044Z,27.63
2023-05-15T09:26:46.329Z,27.81
2023-05-15T09:29:18.738Z,28.05
2023-05-15T09:31:48.365Z,28.19
2023-05-15T09:34:18.033Z,28.21
2023-05-15T09:36:46.117Z,28.21
2023-05-15T09:39:14.631Z,28.05
2023-05-15T09:41:45.045Z,28.21
2023-05-15T09:44:23.230Z,28.40
2023-05-15T09:46:52.976Z,28.58
2023-05-15T09:49:22.577Z,28.51
2023-05-15T09:51:51.448Z,28.51
2023-05-15T09:54:20.318Z,28.80
2023-05-15T09:56:48.980Z,28.85
2023-05-15T09:59:21.684Z,28.87
2023-05-15T10:01:51.580Z,28.86
2023-05-15T10:04:21.612Z,29.17
2023-05-15T10:06:52.259Z,29.36
2023-05-15T10:09:20.605Z,29.25
2023-05-15T10:11:52.982Z,29.31
2023-05-15T10:14:24.420Z,28.98
2023-05-15T10:16:52.623Z,29.48
2023-05-15T10:19:23.667Z,29.50
2023-05-15T10:21:57.140Z,29.60
2023-05-15T10:24:29.847Z,29.50
2023-05-15T10:26:58.944Z,29.65
2023-05-15T10:29:29.978Z,29.68
2023-05-15T10:32:01.664Z,29.75
2023-05-15T10:34:30.172Z,29.44
2023-05-15T10:37:01.497Z,29.77
2023-05-15T10:39:31.073Z,29.79
2023-05-15T10:42:00.809Z,29.86
2023-05-15T10:44:29.263Z,30.14
2023-05-15T10:46:57.489Z,30.32
2023-05-15T10:49:26.236Z,30.52
2023-05-15T10:51:54.529Z,30.21
2023-05-15T10:54:24.337Z,30.10
2023-05-15T10:56:52.954Z,30.31
2023-05-15T10:59:21.212Z,30.14
2023-05-15T11:01:50.859Z,29.29
2023-05-15T11:04:20.277Z,28.63
2023-05-15T11:06:51.779Z,28.87
2023-05-15T11:09:41.304Z,28.43
2023-05-15T11:12:11.768Z,28.35
2023-05-15T11:14:43.354Z,28.30
2023-05-15T11:17:12.768Z,28.09
2023-05-15T11:20:01.426Z,28.00
2023-05-15T11:22:32.469Z,28.04
2023-05-15T11:25:03.452Z,27.94
2023-05-15T11:27:33.713Z,28.32
2023-05-15T11:30:13.418Z,28.55
2023-05-15T11:32:53.495Z,28.60
2023-05-15T11:35:24.303Z,28.56
2023-05-15T11:37:55.202Z,28.48
2023-05-15T11:40:27.209Z,28.92
2023-05-15T11:43:07.222Z,28.91
2023-05-15T11:45:38.865Z,29.65
2023-05-15T11:48:09.835Z,30.22
2023-05-15T11:50:42.745Z,30.25
2023-05-15T11:53:11.365Z,30.27
2023-05-15T11:55:42.418Z,30.64
2023-05-15T11:58:15.298Z,30.71
2023-05-15T12:00:44.940Z,30.80
2023-05-15T12:03:21.718Z,30.71
2023-05-15T12:05:59.206Z,30.17
2023-05-15T12:08:33.353Z,30.39
2023-05-15T12:11:03.749Z,30.62
2023-05-15T12:13:32.959Z,30.66
2023-05-15T12:16:03.379Z,30.61
2023-05-15T12:18:33.295Z,30.45
2023-05-15T12:21:01.472Z,30.11
2023-05-15T12:23:29.756Z,30.33
2023-05-15T12:26:02.368Z,30.28
2023-05-15T12:28:36.134Z,30.05
2023-05-15T12:31:06.303Z,30.16
2023-05-15T12:33:34.539Z,30.27
2023-05-15T12:36:04.960Z,30.41
2023-05-15T12:38:34.947Z,30.80
2023-05-15T12:41:04.507Z,31.10
2023-05-15T12:43:33.321Z,31.39
2023-05-15T12:46:02.298Z,31.21
2023-05-15T12:48:32.254Z,30.97
2023-05-15T12:51:07.251Z,30.42
2023-05-15T12:53:39.891Z,28.99
2023-05-15T12:56:21.950Z,29.27
2023-05-15T12:58:56.745Z,28.31
2023-05-15T13:01:24.857Z,28.44
2023-05-15T13:03:54.181Z,27.67
2023-05-15T13:06:24.056Z,27.27
2023-05-15T13:08:52.739Z,26.92
2023-05-15T13:11:31.454Z,26.87
2023-05-15T13:16:51.259Z,26.50
2023-05-15T13:19:19.602Z,26.38
2023-05-15T13:21:50.839Z,26.12
2023-05-15T13:24:19.402Z,26.31
2023-05-15T13:26:48.922Z,26.30
2023-05-15T13:29:17.005Z,26.16
2023-05-15T13:31:45.533Z,26.08
2023-05-15T13:34:13.946Z,26.24
2023-05-15T13:36:42.424Z,26.38
2023-05-15T13:39:10.902Z,26.64
2023-05-15T13:41:39.183Z,26.79
2023-05-15T13:44:09.001Z,26.79
2023-05-15T13:46:37.691Z,26.89
2023-05-15T13:49:07.021Z,26.98
2023-05-15T13:51:35.707Z,27.21
2023-05-15T13:54:04.498Z,26.94
2023-05-15T13:56:32.664Z,26.93
2023-05-15T13:59:00.832Z,27.28
2023-05-15T14:01:30.713Z,27.56
2023-05-15T14:03:59.764Z,27.77
2023-05-15T14:06:28.458Z,28.06
2023-05-15T14:08:56.538Z,28.17
2023-05-15T14:11:25.158Z,28.35
2023-05-15T14:13:53.365Z,28.50
2023-05-15T14:16:21.589Z,28.57
2023-05-15T14:18:51.534Z,28.79
2023-05-15T14:21:19.793Z,28.93
2023-05-15T14:23:47.956Z,29.53
2023-05-15T14:26:16.399Z,30.06
2023-05-15T14:28:44.560Z,30.23
2023-05-15T14:31:12.926Z,30.45
2023-05-15T14:33:41.933Z,30.12
2023-05-15T14:36:11.452Z,30.12
2023-05-15T14:38:39.945Z,30.36
2023-05-15T14:44:07.375Z,29.44
2023-05-15T14:46:36.479Z,29.36
2023-05-15T14:49:05.121Z,29.03
2023-05-15T14:51:34.769Z,28.92
2023-05-15T14:54:05.011Z,28.87
2023-05-15T14:56:33.474Z,29.31
2023-05-15T14:59:01.879Z,29.54
2023-05-15T15:01:30.517Z,29.87
2023-05-15T15:03:58.896Z,29.89
2023-05-15T15:06:27.132Z,29.74
2023-05-15T15:08:56.930Z,29.25
2023-05-15T15:11:24.933Z,28.83
2023-05-15T15:13:53.037Z,28.92
2023-05-15T15:16:21.738Z,28.50
2023-05-15T15:18:49.906Z,28.50
2023-05-15T15:21:17.989Z,28.01
2023-05-15T15:23:48.273Z,27.93
2023-05-15T15:26:18.108Z,27.82
2023-05-15T15:28:46.479Z,27.97
2023-05-15T15:31:15.569Z,28.18
2023-05-15T15:33:46.461Z,28.51
2023-05-15T15:36:14.820Z,28.87
2023-05-15T15:38:43.823Z,28.72
2023-05-15T15:41:12.267Z,28.18
2023-05-15T15:43:42.041Z,27.84
2023-05-15T15:46:11.828Z,27.47
2023-05-15T15:48:48.735Z,27.63
2023-05-15T15:51:17.416Z,27.91
2023-05-15T15:53:45.694Z,28.55
2023-05-15T15:56:13.657Z,28.55
2023-05-15T15:58:43.033Z,28.27
2023-05-15T16:01:11.390Z,27.87
2023-05-15T16:03:39.849Z,27.57
2023-05-15T16:06:07.978Z,27.35
2023-05-15T16:08:36.263Z,27.34
2023-05-15T16:11:04.666Z,27.33
2023-05-15T16:13:33.041Z,27.11
2023-05-15T16:16:03.673Z,27.12
2023-05-15T16:18:32.005Z,27.32
2023-05-15T16:21:00.049Z,27.31
2023-05-15T16:23:30.308Z,27.33
2023-05-15T16:25:58.547Z,27.36
2023-05-15T16:28:26.581Z,27.37
2023-05-15T16:30:55.127Z,27.64
2023-05-15T16:33:25.065Z,27.77
2023-05-15T16:35:53.128Z,27.69
2023-05-15T16:38:21.207Z,27.61
2023-05-15T16:40:50.278Z,27.60
2023-05-15T16:43:18.349Z,27.59
2023-05-15T16:45:46.415Z,27.60
2023-05-15T16:48:14.822Z,27.63
2023-05-15T16:50:44.319Z,27.73
2023-05-15T16:53:12.507Z,28.47
2023-05-15T16:55:41.357Z,29.66
2023-05-15T16:58:09.607Z,30.61
2023-05-15T17:00:38.187Z,30.82
2023-05-15T17:03:07.244Z,30.42
2023-05-15T17:05:35.603Z,29.67
2023-05-15T17:08:05.634Z,28.75
2023-05-15T17:10:33.949Z,28.15
2023-05-15T17:13:01.890Z,28.35
2023-05-15T17:15:30.295Z,27.89
2023-05-15T17:17:58.849Z,27.66
2023-05-15T17:20:27.395Z,27.33
2023-05-15T17:22:55.568Z,26.90
2023-05-15T17:25:25.739Z,27.00
2023-05-15T17:27:54.092Z,27.07
2023-05-15T17:30:22.632Z,27.49
2023-05-15T17:32:53.957Z,28.04
2023-05-15T17:35:22.823Z,28.79
2023-05-15T17:37:51.725Z,28.51
2023-05-15T17:40:20.398Z,28.56
2023-05-15T17:42:49.834Z,28.34
2023-05-15T17:45:21.784Z,27.87
2023-05-15T17:48:02.610Z,27.75
2023-05-15T17:50:39.062Z,27.42
2023-05-15T17:53:07.472Z,27.10
2023-05-15T17:55:36.281Z,26.76
2023-05-15T17:58:06.101Z,26.38
2023-05-15T18:00:34.476Z,26.30
2023-05-15T18:03:02.967Z,26.21
2023-05-15T18:05:31.171Z,26.05
2023-05-15T18:08:02.013Z,25.94
2023-05-15T18:10:30.663Z,25.85
2023-05-15T18:12:59.181Z,25.76
2023-05-15T18:15:31.069Z,25.38
2023-05-15T18:18:00.065Z,25.17
2023-05-15T18:20:28.161Z,25.03
2023-05-15T18:22:56.370Z,25.03
2023-05-15T18:25:25.871Z,25.16
2023-05-15T18:27:54.689Z,25.00
2023-05-15T18:30:22.746Z,24.98
2023-05-15T18:32:52.455Z,24.81
2023-05-15T18:35:20.857Z,24.67
2023-05-15T18:37:48.847Z,24.73
2023-05-15T18:40:17.636Z,24.69
2023-05-15T18:42:45.646Z,24.43
2023-05-15T18:45:14.318Z,24.02
2023-05-15T18:47:42.732Z,24.11
2023-05-15T18:50:13.760Z,23.80
2023-05-15T18:52:41.884Z,23.97
2023-05-15T18:55:11.253Z,23.80
2023-05-15T18:57:39.900Z,23.90
2023-05-15T19:00:09.135Z,23.47
2023-05-15T19:02:40.225Z,23.19
2023-05-15T19:05:10.251Z,23.06
2023-05-15T19:07:41.254Z,23.10
2023-05-15T19:10:10.849Z,22.97
2023-05-15T19:12:39.131Z,23.02
2023-05-15T19:15:08.686Z,22.81
2023-05-15T19:17:38.223Z,22.73
2023-05-15T19:20:08.592Z,22.83
2023-05-15T19:22:36.816Z,22.99
2023-05-15T19:25:07.247Z,22.98
2023-05-15T19:27:35.789Z,23.02
2023-05-15T19:30:04.180Z,22.67
2023-05-15T19:32:32.276Z,22.71
2023-05-15T19:35:00.985Z,22.69
2023-05-15T19:37:29.055Z,22.71
2023-05-15T19:39:57.264Z,22.57
2023-05-15T19:42:27.186Z,22.52
2023-05-15T19:44:55.605Z,22.28
2023-05-15T19:47:23.782Z,22.20
2023-05-15T19:49:52.241Z,22.49
2023-05-15T19:52:20.423Z,22.50
2023-05-15T19:54:48.390Z,22.51
2023-05-15T19:57:17.283Z,22.33
2023-05-15T19:59:46.688Z,22.23
2023-05-15T20:02:15.102Z,22.21
2023-05-15T20:04:45.065Z,22.18
2023-05-15T20:07:13.313Z,22.32
2023-05-15T20:09:41.544Z,22.13
2023-05-15T20:12:09.892Z,22.15
2023-05-15T20:14:38.226Z,22.14
2023-05-15T20:17:09.972Z,22.16
2023-05-15T20:19:38.381Z,22.12
2023-05-15T20:22:06.647Z,21.89
2023-05-15T20:24:35.564Z,21.93
2023-05-15T20:27:04.388Z,22.02
2023-05-15T20:29:32.621Z,21.95
2023-05-15T20:32:00.969Z,21.91
2023-05-15T20:34:33.526Z,21.87
2023-05-15T20:37:02.707Z,21.92
2023-05-15T20:39:31.142Z,21.77
2023-05-15T20:41:59.406Z,21.83
2023-05-15T20:44:27.525Z,21.60
2023-05-15T20:46:56.173Z,21.70
2023-05-15T20:49:24.292Z,21.31
2023-05-15T20:51:53.912Z,21.38
2023-05-15T20:54:22.489Z,21.45
2023-05-15T20:56:52.123Z,21.38
2023-05-15T20:59:20.509Z,21.38
2023-05-15T21:01:51.562Z,21.42
2023-05-15T21:04:20.332Z,21.40
2023-05-15T21:06:49.206Z,21.27
2023-05-15T21:09:18.771Z,21.28
2023-05-15T21:11:47.276Z,21.30
2023-05-15T21:14:15.656Z,21.16
2023-05-15T21:16:45.763Z,21.00
2023-05-15T21:19:18.952Z,20.97
2023-05-15T21:21:47.170Z,20.81
2023-05-15T21:24:15.671Z,20.76
2023-05-15T21:26:45.842Z,20.71
2023-05-15T21:29:13.995Z,20.56
2023-05-15T21:31:43.125Z,20.57
2023-05-15T21:34:11.488Z,20.53
2023-05-15T21:36:47.287Z,20.45
2023-05-15T21:39:15.614Z,20.52
2023-05-15T21:41:45.036Z,20.38
2023-05-15T21:44:14.149Z,20.38
2023-05-15T21:46:42.867Z,20.34
2023-05-15T21:49:10.979Z,20.41
2023-05-15T21:51:48.297Z,20.43
2023-05-15T21:54:16.802Z,20.27
2023-05-15T21:56:55.096Z,20.45
2023-05-15T21:59:24.391Z,20.45
2023-05-15T22:01:52.747Z,20.45
2023-05-15T22:04:21.570Z,20.43
2023-05-15T22:06:49.855Z,20.27
2023-05-15T22:09:17.962Z,20.09
2023-05-15T22:11:47.688Z,20.06
2023-05-15T22:14:15.868Z,19.84
2023-05-15T22:16:44.689Z,20.00
2023-05-15T22:19:21.471Z,20.07
2023-05-15T22:22:00.316Z,19.91
2023-05-15T22:24:28.642Z,19.96
2023-05-15T22:26:57.946Z,19.76
2023-05-15T22:29:26.618Z,19.76
2023-05-15T22:31:55.508Z,19.83
2023-05-15T22:34:25.417Z,19.65
2023-05-15T22:39:35.687Z,19.75
2023-05-15T22:42:07.259Z,19.70
2023-05-15T22:44:50.955Z,19.68
2023-05-15T22:47:49.356Z,19.66
2023-05-15T22:50:35.548Z,19.52
2023-05-15T22:53:04.155Z,19.31
2023-05-15T22:55:32.674Z,19.40
2023-05-15T22:58:33.105Z,19.38
2023-05-15T23:01:05.141Z,19.36
2023-05-15T23:03:33.274Z,19.29
2023-05-15T23:06:02.149Z,19.20
2023-05-15T23:08:47.118Z,19.30
2023-05-15T23:11:32.017Z,19.11
2023-05-15T23:14:00.561Z,19.16
2023-05-15T23:17:07.074Z,19.28
2023-05-15T23:22:43.319Z,19.18
2023-05-15T23:25:12.027Z,19.05
2023-05-15T23:28:19.417Z,19.13
2023-05-15T23:30:47.651Z,18.89
